sensor_id;sensor_type;location;lat;lon;timestamp;temperature;humidity
2687;DHT22;1353;51.386;7.028;2022-09-03T00:00:00;16.70;65.00
2687;DHT22;1353;51.386;7.028;2022-09-03T00:02:34;16.60;64.20
2687;DHT22;1353;51.386;7.028;2022-09-03T00:05:07;17.00;62.30
2687;DHT22;1353;51.386;7.028;2022-09-03T00:07:41;16.60;64.30
2687;DHT22;1353;51.386;7.028;2022-09-03T00:10:14;16.60;64.40
2687;DHT22;1353;51.386;7.028;2022-09-03T00:12:43;16.70;64.60
2687;DHT22;1353;51.386;7.028;2022-09-03T00:15:13;16.70;63.30
2687;DHT22;1353;51.386;7.028;2022-09-03T00:17:44;16.70;63.80
2687;DHT22;1353;51.386;7.028;2022-09-03T00:20:16;16.40;65.30
2687;DHT22;1353;51.386;7.028;2022-09-03T00:22:47;16.70;63.50
2687;DHT22;1353;51.386;7.028;2022-09-03T00:25:18;16.70;63.30
2687;DHT22;1353;51.386;7.028;2022-09-03T00:27:49;16.70;63.50
2687;DHT22;1353;51.386;7.028;2022-09-03T00:30:17;16.80;62.30
2687;DHT22;1353;51.386;7.028;2022-09-03T00:32:47;16.90;61.50
2687;DHT22;1353;51.386;7.028;2022-09-03T00:35:22;16.90;61.30
2687;DHT22;1353;51.386;7.028;2022-09-03T00:37:50;16.90;60.90
2687;DHT22;1353;51.386;7.028;2022-09-03T00:40:31;16.80;61.00
2687;DHT22;1353;51.386;7.028;2022-09-03T00:43:07;16.80;62.20
2687;DHT22;1353;51.386;7.028;2022-09-03T00:45:42;17.10;60.00
2687;DHT22;1353;51.386;7.028;2022-09-03T00:48:20;16.90;60.20
2687;DHT22;1353;51.386;7.028;2022-09-03T00:51:00;17.00;59.40
2687;DHT22;1353;51.386;7.028;2022-09-03T00:53:36;16.90;60.80
2687;DHT22;1353;51.386;7.028;2022-09-03T00:56:12;16.80;61.10
2687;DHT22;1353;51.386;7.028;2022-09-03T00:58:52;16.70;60.70
2687;DHT22;1353;51.386;7.028;2022-09-03T01:01:28;16.80;60.80
2687;DHT22;1353;51.386;7.028;2022-09-03T01:04:06;16.90;59.80
2687;DHT22;1353;51.386;7.028;2022-09-03T01:06:41;17.00;59.40
2687;DHT22;1353;51.386;7.028;2022-09-03T01:09:18;16.90;60.50
2687;DHT22;1353;51.386;7.028;2022-09-03T01:11:55;17.00;59.40
2687;DHT22;1353;51.386;7.028;2022-09-03T01:14:30;17.00;58.80
2687;DHT22;1353;51.386;7.028;2022-09-03T01:17:05;17.00;59.10
2687;DHT22;1353;51.386;7.028;2022-09-03T01:25:50;17.20;57.40
2687;DHT22;1353;51.386;7.028;2022-09-03T01:28:26;17.10;57.70
2687;DHT22;1353;51.386;7.028;2022-09-03T01:31:05;17.20;57.60
2687;DHT22;1353;51.386;7.028;2022-09-03T01:33:38;17.00;58.10
2687;DHT22;1353;51.386;7.028;2022-09-03T01:36:10;17.20;57.30
2687;DHT22;1353;51.386;7.028;2022-09-03T01:38:46;17.20;57.30
2687;DHT22;1353;51.386;7.028;2022-09-03T01:41:23;17.20;57.20
2687;DHT22;1353;51.386;7.028;2022-09-03T01:44:15;17.00;58.30
2687;DHT22;1353;51.386;7.028;2022-09-03T01:46:50;17.10;57.70
2687;DHT22;1353;51.386;7.028;2022-09-03T01:49:27;16.90;57.90
2687;DHT22;1353;51.386;7.028;2022-09-03T01:52:01;16.80;58.50
2687;DHT22;1353;51.386;7.028;2022-09-03T01:54:40;17.00;58.10
2687;DHT22;1353;51.386;7.028;2022-09-03T01:57:44;17.10;57.80
2687;DHT22;1353;51.386;7.028;2022-09-03T02:00:15;16.90;58.10
2687;DHT22;1353;51.386;7.028;2022-09-03T02:02:46;16.80;58.20
2687;DHT22;1353;51.386;7.028;2022-09-03T02:05:16;16.70;59.90
2687;DHT22;1353;51.386;7.028;2022-09-03T02:07:45;16.70;59.60
2687;DHT22;1353;51.386;7.028;2022-09-03T02:10:14;16.50;60.60
2687;DHT22;1353;51.386;7.028;2022-09-03T02:12:46;16.70;60.40
2687;DHT22;1353;51.386;7.028;2022-09-03T02:15:17;16.50;61.30
2687;DHT22;1353;51.386;7.028;2022-09-03T02:17:47;16.50;61.10
2687;DHT22;1353;51.386;7.028;2022-09-03T02:20:17;16.20;63.20
2687;DHT22;1353;51.386;7.028;2022-09-03T02:22:45;16.60;61.00
2687;DHT22;1353;51.386;7.028;2022-09-03T02:25:13;16.60;60.90
2687;DHT22;1353;51.386;7.028;2022-09-03T02:27:40;16.80;60.30
2687;DHT22;1353;51.386;7.028;2022-09-03T02:30:08;16.70;60.50
2687;DHT22;1353;51.386;7.028;2022-09-03T02:32:37;16.50;61.60
2687;DHT22;1353;51.386;7.028;2022-09-03T02:35:04;16.40;62.10
2687;DHT22;1353;51.386;7.028;2022-09-03T02:37:31;16.50;62.40
2687;DHT22;1353;51.386;7.028;2022-09-03T02:39:58;16.40;62.50
2687;DHT22;1353;51.386;7.028;2022-09-03T02:42:24;16.50;62.60
2687;DHT22;1353;51.386;7.028;2022-09-03T02:44:53;16.50;62.50
2687;DHT22;1353;51.386;7.028;2022-09-03T02:47:22;16.50;63.10
2687;DHT22;1353;51.386;7.028;2022-09-03T02:49:50;16.60;62.60
2687;DHT22;1353;51.386;7.028;2022-09-03T02:52:17;16.20;65.00
2687;DHT22;1353;51.386;7.028;2022-09-03T02:54:44;16.40;64.30
2687;DHT22;1353;51.386;7.028;2022-09-03T02:57:12;16.30;65.60
2687;DHT22;1353;51.386;7.028;2022-09-03T02:59:40;16.20;66.00
2687;DHT22;1353;51.386;7.028;2022-09-03T03:02:09;16.30;65.30
2687;DHT22;1353;51.386;7.028;2022-09-03T03:04:36;16.10;67.70
2687;DHT22;1353;51.386;7.028;2022-09-03T03:07:04;16.10;68.30
2687;DHT22;1353;51.386;7.028;2022-09-03T03:09:31;16.10;69.10
2687;DHT22;1353;51.386;7.028;2022-09-03T03:11:58;16.20;68.20
2687;DHT22;1353;51.386;7.028;2022-09-03T03:14:25;16.10;68.20
2687;DHT22;1353;51.386;7.028;2022-09-03T03:16:51;16.20;68.40
2687;DHT22;1353;51.386;7.028;2022-09-03T03:19:18;15.80;72.50
2687;DHT22;1353;51.386;7.028;2022-09-03T03:21:45;15.40;77.00
2687;DHT22;1353;51.386;7.028;2022-09-03T03:24:13;15.60;77.10
2687;DHT22;1353;51.386;7.028;2022-09-03T03:26:39;15.50;78.70
2687;DHT22;1353;51.386;7.028;2022-09-03T03:29:06;15.40;82.20
2687;DHT22;1353;51.386;7.028;2022-09-03T03:31:33;15.20;87.90
2687;DHT22;1353;51.386;7.028;2022-09-03T03:34:01;15.20;89.80
2687;DHT22;1353;51.386;7.028;2022-09-03T03:36:30;15.10;90.20
2687;DHT22;1353;51.386;7.028;2022-09-03T03:38:59;15.20;90.70
2687;DHT22;1353;51.386;7.028;2022-09-03T03:41:28;15.20;91.50
2687;DHT22;1353;51.386;7.028;2022-09-03T03:43:57;15.10;91.80
2687;DHT22;1353;51.386;7.028;2022-09-03T03:46:28;14.80;93.60
2687;DHT22;1353;51.386;7.028;2022-09-03T03:48:56;14.90;94.80
2687;DHT22;1353;51.386;7.028;2022-09-03T03:51:22;14.90;94.80
2687;DHT22;1353;51.386;7.028;2022-09-03T03:53:53;15.20;93.00
2687;DHT22;1353;51.386;7.028;2022-09-03T03:56:21;15.10;93.50
2687;DHT22;1353;51.386;7.028;2022-09-03T03:58:49;15.20;92.80
2687;DHT22;1353;51.386;7.028;2022-09-03T04:01:17;15.40;91.90
2687;DHT22;1353;51.386;7.028;2022-09-03T04:03:45;15.50;90.70
2687;DHT22;1353;51.386;7.028;2022-09-03T04:06:13;15.60;90.20
2687;DHT22;1353;51.386;7.028;2022-09-03T04:08:42;15.40;90.90
2687;DHT22;1353;51.386;7.028;2022-09-03T04:11:10;15.40;90.80
2687;DHT22;1353;51.386;7.028;2022-09-03T04:13:39;15.40;90.30
2687;DHT22;1353;51.386;7.028;2022-09-03T04:16:09;15.50;90.40
2687;DHT22;1353;51.386;7.028;2022-09-03T04:18:37;15.40;90.70
2687;DHT22;1353;51.386;7.028;2022-09-03T04:21:06;15.30;91.60
2687;DHT22;1353;51.386;7.028;2022-09-03T04:23:36;15.20;92.10
2687;DHT22;1353;51.386;7.028;2022-09-03T04:26:04;15.20;92.80
2687;DHT22;1353;51.386;7.028;2022-09-03T04:28:32;15.10;93.40
2687;DHT22;1353;51.386;7.028;2022-09-03T04:30:59;14.90;94.90
2687;DHT22;1353;51.386;7.028;2022-09-03T04:33:28;15.10;94.10
2687;DHT22;1353;51.386;7.028;2022-09-03T04:36:02;15.00;94.10
2687;DHT22;1353;51.386;7.028;2022-09-03T04:38:29;15.20;93.00
2687;DHT22;1353;51.386;7.028;2022-09-03T04:40:57;15.40;91.90
2687;DHT22;1353;51.386;7.028;2022-09-03T04:43:25;15.20;92.50
2687;DHT22;1353;51.386;7.028;2022-09-03T04:45:55;15.30;92.70
2687;DHT22;1353;51.386;7.028;2022-09-03T04:48:22;15.10;93.30
2687;DHT22;1353;51.386;7.028;2022-09-03T04:50:50;14.90;95.00
2687;DHT22;1353;51.386;7.028;2022-09-03T04:53:19;14.90;95.80
2687;DHT22;1353;51.386;7.028;2022-09-03T04:55:46;14.60;97.20
2687;DHT22;1353;51.386;7.028;2022-09-03T04:58:14;14.50;99.50
2687;DHT22;1353;51.386;7.028;2022-09-03T05:00:40;14.80;98.80
2687;DHT22;1353;51.386;7.028;2022-09-03T05:03:07;15.00;97.90
2687;DHT22;1353;51.386;7.028;2022-09-03T05:05:34;15.30;95.50
2687;DHT22;1353;51.386;7.028;2022-09-03T05:08:02;15.60;93.40
2687;DHT22;1353;51.386;7.028;2022-09-03T05:10:30;15.90;90.80
2687;DHT22;1353;51.386;7.028;2022-09-03T05:12:58;16.30;84.90
2687;DHT22;1353;51.386;7.028;2022-09-03T05:15:25;16.80;80.60
2687;DHT22;1353;51.386;7.028;2022-09-03T05:17:55;17.10;76.60
2687;DHT22;1353;51.386;7.028;2022-09-03T05:20:22;17.10;74.00
2687;DHT22;1353;51.386;7.028;2022-09-03T05:22:49;17.50;69.50
2687;DHT22;1353;51.386;7.028;2022-09-03T05:25:18;17.70;69.70
2687;DHT22;1353;51.386;7.028;2022-09-03T05:27:44;17.90;66.80
2687;DHT22;1353;51.386;7.028;2022-09-03T05:30:12;17.80;65.70
2687;DHT22;1353;51.386;7.028;2022-09-03T05:32:39;18.30;64.60
2687;DHT22;1353;51.386;7.028;2022-09-03T05:35:07;18.00;62.70
2687;DHT22;1353;51.386;7.028;2022-09-03T05:37:35;18.00;62.50
2687;DHT22;1353;51.386;7.028;2022-09-03T05:40:03;18.20;62.40
2687;DHT22;1353;51.386;7.028;2022-09-03T05:42:31;18.20;63.50
2687;DHT22;1353;51.386;7.028;2022-09-03T05:45:05;18.50;58.80
2687;DHT22;1353;51.386;7.028;2022-09-03T05:47:36;19.50;56.00
2687;DHT22;1353;51.386;7.028;2022-09-03T05:50:05;19.90;55.10
2687;DHT22;1353;51.386;7.028;2022-09-03T05:52:33;19.10;54.10
2687;DHT22;1353;51.386;7.028;2022-09-03T05:55:00;19.30;54.50
2687;DHT22;1353;51.386;7.028;2022-09-03T05:57:27;19.90;53.90
2687;DHT22;1353;51.386;7.028;2022-09-03T05:59:58;19.40;53.30
2687;DHT22;1353;51.386;7.028;2022-09-03T06:02:25;19.80;54.60
2687;DHT22;1353;51.386;7.028;2022-09-03T06:04:52;20.70;51.00
2687;DHT22;1353;51.386;7.028;2022-09-03T06:07:20;20.10;51.20
2687;DHT22;1353;51.386;7.028;2022-09-03T06:09:47;20.90;49.50
2687;DHT22;1353;51.386;7.028;2022-09-03T06:12:14;20.70;48.80
2687;DHT22;1353;51.386;7.028;2022-09-03T06:14:41;20.30;48.80
2687;DHT22;1353;51.386;7.028;2022-09-03T06:17:09;21.10;47.50
2687;DHT22;1353;51.386;7.028;2022-09-03T06:19:37;20.50;48.00
2687;DHT22;1353;51.386;7.028;2022-09-03T06:22:04;20.20;48.10
2687;DHT22;1353;51.386;7.028;2022-09-03T06:24:31;21.10;45.50
2687;DHT22;1353;51.386;7.028;2022-09-03T06:26:58;22.40;43.30
2687;DHT22;1353;51.386;7.028;2022-09-03T06:29:24;22.20;41.70
2687;DHT22;1353;51.386;7.028;2022-09-03T06:31:52;22.60;41.10
2687;DHT22;1353;51.386;7.028;2022-09-03T06:34:20;21.80;42.60
2687;DHT22;1353;51.386;7.028;2022-09-03T06:36:50;21.30;40.80
2687;DHT22;1353;51.386;7.028;2022-09-03T06:39:17;22.80;40.90
2687;DHT22;1353;51.386;7.028;2022-09-03T06:41:44;22.90;39.00
2687;DHT22;1353;51.386;7.028;2022-09-03T06:44:16;23.50;39.40
2687;DHT22;1353;51.386;7.028;2022-09-03T06:46:43;23.10;37.70
2687;DHT22;1353;51.386;7.028;2022-09-03T06:49:10;23.20;38.10
2687;DHT22;1353;51.386;7.028;2022-09-03T06:51:39;25.10;34.40
2687;DHT22;1353;51.386;7.028;2022-09-03T06:54:09;23.90;36.90
2687;DHT22;1353;51.386;7.028;2022-09-03T06:56:38;23.00;36.70
2687;DHT22;1353;51.386;7.028;2022-09-03T06:59:07;23.00;34.40
2687;DHT22;1353;51.386;7.028;2022-09-03T07:01:34;22.80;36.60
2687;DHT22;1353;51.386;7.028;2022-09-03T07:04:06;22.50;36.70
2687;DHT22;1353;51.386;7.028;2022-09-03T07:06:35;22.10;37.00
2687;DHT22;1353;51.386;7.028;2022-09-03T07:09:04;22.30;37.90
2687;DHT22;1353;51.386;7.028;2022-09-03T07:11:31;22.50;37.20
2687;DHT22;1353;51.386;7.028;2022-09-03T07:14:01;22.40;37.80
2687;DHT22;1353;51.386;7.028;2022-09-03T07:16:29;23.70;36.10
2687;DHT22;1353;51.386;7.028;2022-09-03T07:18:56;23.90;35.20
2687;DHT22;1353;51.386;7.028;2022-09-03T07:21:26;23.90;35.20
2687;DHT22;1353;51.386;7.028;2022-09-03T07:23:54;23.60;35.10
2687;DHT22;1353;51.386;7.028;2022-09-03T07:26:24;24.10;34.10
2687;DHT22;1353;51.386;7.028;2022-09-03T07:28:52;24.50;33.50
2687;DHT22;1353;51.386;7.028;2022-09-03T07:31:21;23.80;34.00
2687;DHT22;1353;51.386;7.028;2022-09-03T07:33:50;23.90;32.90
2687;DHT22;1353;51.386;7.028;2022-09-03T07:36:21;25.30;32.60
2687;DHT22;1353;51.386;7.028;2022-09-03T07:38:48;24.10;32.80
2687;DHT22;1353;51.386;7.028;2022-09-03T07:41:15;24.10;33.80
2687;DHT22;1353;51.386;7.028;2022-09-03T07:43:44;21.90;34.60
2687;DHT22;1353;51.386;7.028;2022-09-03T07:46:12;24.30;33.70
2687;DHT22;1353;51.386;7.028;2022-09-03T07:48:39;22.80;32.20
2687;DHT22;1353;51.386;7.028;2022-09-03T07:51:06;24.40;31.20
2687;DHT22;1353;51.386;7.028;2022-09-03T07:53:34;23.90;32.10
2687;DHT22;1353;51.386;7.028;2022-09-03T07:56:02;22.30;33.40
2687;DHT22;1353;51.386;7.028;2022-09-03T07:58:29;23.10;32.60
2687;DHT22;1353;51.386;7.028;2022-09-03T08:00:58;23.30;33.00
2687;DHT22;1353;51.386;7.028;2022-09-03T08:03:28;23.40;32.60
2687;DHT22;1353;51.386;7.028;2022-09-03T08:06:00;23.10;34.00
2687;DHT22;1353;51.386;7.028;2022-09-03T08:08:27;24.70;32.40
2687;DHT22;1353;51.386;7.028;2022-09-03T08:10:54;26.30;30.20
2687;DHT22;1353;51.386;7.028;2022-09-03T08:13:22;25.20;29.90
2687;DHT22;1353;51.386;7.028;2022-09-03T08:15:53;26.20;29.90
2687;DHT22;1353;51.386;7.028;2022-09-03T08:18:21;24.60;28.50
2687;DHT22;1353;51.386;7.028;2022-09-03T08:20:48;25.00;29.30
2687;DHT22;1353;51.386;7.028;2022-09-03T08:23:14;24.70;28.30
2687;DHT22;1353;51.386;7.028;2022-09-03T08:25:41;25.00;28.20
2687;DHT22;1353;51.386;7.028;2022-09-03T08:28:09;26.80;28.00
2687;DHT22;1353;51.386;7.028;2022-09-03T08:30:35;25.30;27.10
2687;DHT22;1353;51.386;7.028;2022-09-03T08:33:02;26.10;26.10
2687;DHT22;1353;51.386;7.028;2022-09-03T08:35:32;25.20;27.50
2687;DHT22;1353;51.386;7.028;2022-09-03T08:37:59;25.40;28.90
2687;DHT22;1353;51.386;7.028;2022-09-03T08:40:30;24.80;29.80
2687;DHT22;1353;51.386;7.028;2022-09-03T08:43:07;24.60;27.80
2687;DHT22;1353;51.386;7.028;2022-09-03T08:45:41;25.40;28.50
2687;DHT22;1353;51.386;7.028;2022-09-03T08:48:11;24.80;28.70
2687;DHT22;1353;51.386;7.028;2022-09-03T08:50:42;25.00;27.90
2687;DHT22;1353;51.386;7.028;2022-09-03T08:53:13;26.50;27.50
2687;DHT22;1353;51.386;7.028;2022-09-03T08:55:46;24.80;27.60
2687;DHT22;1353;51.386;7.028;2022-09-03T08:58:17;27.90;25.00
2687;DHT22;1353;51.386;7.028;2022-09-03T09:00:50;25.10;26.70
2687;DHT22;1353;51.386;7.028;2022-09-03T09:03:41;26.40;26.50
2687;DHT22;1353;51.386;7.028;2022-09-03T09:06:19;24.40;28.10
2687;DHT22;1353;51.386;7.028;2022-09-03T09:09:01;25.80;26.30
2687;DHT22;1353;51.386;7.028;2022-09-03T09:11:39;27.20;25.20
2687;DHT22;1353;51.386;7.028;2022-09-03T09:14:14;25.60;25.10
2687;DHT22;1353;51.386;7.028;2022-09-03T09:16:47;24.50;27.70
2687;DHT22;1353;51.386;7.028;2022-09-03T09:19:30;25.90;26.60
2687;DHT22;1353;51.386;7.028;2022-09-03T09:22:09;27.20;25.30
2687;DHT22;1353;51.386;7.028;2022-09-03T09:24:40;27.70;24.20
2687;DHT22;1353;51.386;7.028;2022-09-03T09:27:07;27.80;22.60
2687;DHT22;1353;51.386;7.028;2022-09-03T09:29:36;25.40;26.00
2687;DHT22;1353;51.386;7.028;2022-09-03T09:32:07;24.60;27.90
2687;DHT22;1353;51.386;7.028;2022-09-03T09:34:34;24.10;28.50
2687;DHT22;1353;51.386;7.028;2022-09-03T09:37:05;23.90;29.40
2687;DHT22;1353;51.386;7.028;2022-09-03T09:39:33;25.40;29.10
2687;DHT22;1353;51.386;7.028;2022-09-03T09:42:01;24.30;27.70
2687;DHT22;1353;51.386;7.028;2022-09-03T09:44:34;23.40;30.20
2687;DHT22;1353;51.386;7.028;2022-09-03T09:47:03;23.90;28.60
2687;DHT22;1353;51.386;7.028;2022-09-03T09:49:34;23.30;30.00
2687;DHT22;1353;51.386;7.028;2022-09-03T09:52:06;23.60;30.60
2687;DHT22;1353;51.386;7.028;2022-09-03T09:54:34;24.90;30.00
2687;DHT22;1353;51.386;7.028;2022-09-03T09:57:02;25.00;28.50
2687;DHT22;1353;51.386;7.028;2022-09-03T09:59:29;24.50;29.00
2687;DHT22;1353;51.386;7.028;2022-09-03T10:02:18;24.90;28.70
2687;DHT22;1353;51.386;7.028;2022-09-03T10:04:46;26.00;26.80
2687;DHT22;1353;51.386;7.028;2022-09-03T10:07:22;28.10;24.40
2687;DHT22;1353;51.386;7.028;2022-09-03T10:10:03;31.10;21.30
2687;DHT22;1353;51.386;7.028;2022-09-03T10:12:32;29.60;20.60
2687;DHT22;1353;51.386;7.028;2022-09-03T10:15:10;31.40;19.20
2687;DHT22;1353;51.386;7.028;2022-09-03T10:17:45;28.60;20.30
2687;DHT22;1353;51.386;7.028;2022-09-03T10:20:18;26.20;24.60
2687;DHT22;1353;51.386;7.028;2022-09-03T10:23:00;28.60;22.70
2687;DHT22;1353;51.386;7.028;2022-09-03T10:25:34;28.40;21.10
2687;DHT22;1353;51.386;7.028;2022-09-03T10:28:03;25.90;23.60
2687;DHT22;1353;51.386;7.028;2022-09-03T10:30:38;26.30;23.80
2687;DHT22;1353;51.386;7.028;2022-09-03T10:33:15;26.10;23.70
2687;DHT22;1353;51.386;7.028;2022-09-03T10:35:49;28.30;22.60
2687;DHT22;1353;51.386;7.028;2022-09-03T10:38:23;29.30;21.90
2687;DHT22;1353;51.386;7.028;2022-09-03T10:41:00;27.80;22.20
2687;DHT22;1353;51.386;7.028;2022-09-03T10:43:52;28.10;23.10
2687;DHT22;1353;51.386;7.028;2022-09-03T10:46:25;28.70;23.70
2687;DHT22;1353;51.386;7.028;2022-09-03T10:49:17;27.70;24.50
2687;DHT22;1353;51.386;7.028;2022-09-03T10:51:55;27.50;25.10
2687;DHT22;1353;51.386;7.028;2022-09-03T10:54:35;26.10;25.00
2687;DHT22;1353;51.386;7.028;2022-09-03T10:57:10;25.60;27.50
2687;DHT22;1353;51.386;7.028;2022-09-03T10:59:54;25.20;27.40
2687;DHT22;1353;51.386;7.028;2022-09-03T11:02:44;26.50;26.90
2687;DHT22;1353;51.386;7.028;2022-09-03T11:05:16;26.00;26.60
2687;DHT22;1353;51.386;7.028;2022-09-03T11:07:47;24.80;28.50
2687;DHT22;1353;51.386;7.028;2022-09-03T11:10:19;24.90;28.30
2687;DHT22;1353;51.386;7.028;2022-09-03T11:12:54;24.80;30.30
2687;DHT22;1353;51.386;7.028;2022-09-03T11:15:27;25.70;29.90
2687;DHT22;1353;51.386;7.028;2022-09-03T11:18:00;26.40;29.00
2687;DHT22;1353;51.386;7.028;2022-09-03T11:20:28;27.50;27.10
2687;DHT22;1353;51.386;7.028;2022-09-03T11:22:59;25.20;27.50
2687;DHT22;1353;51.386;7.028;2022-09-03T11:25:30;24.90;30.00
2687;DHT22;1353;51.386;7.028;2022-09-03T11:28:07;26.00;28.70
2687;DHT22;1353;51.386;7.028;2022-09-03T11:30:45;26.20;28.30
2687;DHT22;1353;51.386;7.028;2022-09-03T11:33:18;26.10;28.00
2687;DHT22;1353;51.386;7.028;2022-09-03T11:35:48;26.40;28.70
2687;DHT22;1353;51.386;7.028;2022-09-03T11:38:21;26.90;28.30
2687;DHT22;1353;51.386;7.028;2022-09-03T11:41:02;26.30;28.40
2687;DHT22;1353;51.386;7.028;2022-09-03T11:43:30;26.10;29.00
2687;DHT22;1353;51.386;7.028;2022-09-03T11:46:02;25.90;29.40
2687;DHT22;1353;51.386;7.028;2022-09-03T11:48:36;24.50;30.50
2687;DHT22;1353;51.386;7.028;2022-09-03T11:51:14;24.00;32.90
2687;DHT22;1353;51.386;7.028;2022-09-03T11:53:53;24.70;34.50
2687;DHT22;1353;51.386;7.028;2022-09-03T11:56:21;26.00;31.90
2687;DHT22;1353;51.386;7.028;2022-09-03T11:59:00;26.00;30.00
2687;DHT22;1353;51.386;7.028;2022-09-03T12:01:28;26.20;29.60
2687;DHT22;1353;51.386;7.028;2022-09-03T12:03:59;26.10;30.00
2687;DHT22;1353;51.386;7.028;2022-09-03T12:06:41;26.00;29.50
2687;DHT22;1353;51.386;7.028;2022-09-03T12:12:10;27.00;29.30
2687;DHT22;1353;51.386;7.028;2022-09-03T12:14:45;28.10;26.90
2687;DHT22;1353;51.386;7.028;2022-09-03T12:17:21;26.00;30.00
2687;DHT22;1353;51.386;7.028;2022-09-03T12:19:51;26.30;29.40
2687;DHT22;1353;51.386;7.028;2022-09-03T12:22:21;26.50;28.40
2687;DHT22;1353;51.386;7.028;2022-09-03T12:24:48;26.10;29.90
2687;DHT22;1353;51.386;7.028;2022-09-03T12:27:19;27.20;29.50
2687;DHT22;1353;51.386;7.028;2022-09-03T12:29:51;27.30;28.90
2687;DHT22;1353;51.386;7.028;2022-09-03T12:32:23;25.90;30.00
2687;DHT22;1353;51.386;7.028;2022-09-03T12:34:51;26.20;30.60
2687;DHT22;1353;51.386;7.028;2022-09-03T12:37:19;26.60;31.20
2687;DHT22;1353;51.386;7.028;2022-09-03T12:39:52;25.70;31.40
2687;DHT22;1353;51.386;7.028;2022-09-03T12:42:25;26.60;31.20
2687;DHT22;1353;51.386;7.028;2022-09-03T12:44:52;24.60;33.60
2687;DHT22;1353;51.386;7.028;2022-09-03T12:47:21;24.60;34.60
2687;DHT22;1353;51.386;7.028;2022-09-03T12:49:49;24.40;34.80
2687;DHT22;1353;51.386;7.028;2022-09-03T12:52:19;23.40;39.70
2687;DHT22;1353;51.386;7.028;2022-09-03T12:54:51;23.80;40.80
2687;DHT22;1353;51.386;7.028;2022-09-03T12:57:21;23.60;41.00
2687;DHT22;1353;51.386;7.028;2022-09-03T12:59:52;24.20;41.60
2687;DHT22;1353;51.386;7.028;2022-09-03T13:02:24;25.10;39.90
2687;DHT22;1353;51.386;7.028;2022-09-03T13:04:52;25.40;39.50
2687;DHT22;1353;51.386;7.028;2022-09-03T13:07:24;24.70;40.50
2687;DHT22;1353;51.386;7.028;2022-09-03T13:09:51;24.50;42.30
2687;DHT22;1353;51.386;7.028;2022-09-03T13:12:27;24.10;41.20
2687;DHT22;1353;51.386;7.028;2022-09-03T13:14:55;24.50;41.80
2687;DHT22;1353;51.386;7.028;2022-09-03T13:17:29;24.60;41.40
2687;DHT22;1353;51.386;7.028;2022-09-03T13:20:23;24.30;42.50
2687;DHT22;1353;51.386;7.028;2022-09-03T13:25:56;24.60;42.80
2687;DHT22;1353;51.386;7.028;2022-09-03T13:28:34;25.30;41.50
2687;DHT22;1353;51.386;7.028;2022-09-03T13:31:20;24.30;42.10
2687;DHT22;1353;51.386;7.028;2022-09-03T13:33:51;24.10;42.00
2687;DHT22;1353;51.386;7.028;2022-09-03T13:36:21;24.80;42.10
2687;DHT22;1353;51.386;7.028;2022-09-03T13:38:53;25.20;41.10
2687;DHT22;1353;51.386;7.028;2022-09-03T13:41:32;24.40;42.00
2687;DHT22;1353;51.386;7.028;2022-09-03T13:44:05;24.70;41.90
2687;DHT22;1353;51.386;7.028;2022-09-03T13:46:40;24.60;41.00
2687;DHT22;1353;51.386;7.028;2022-09-03T13:49:29;25.70;40.00
2687;DHT22;1353;51.386;7.028;2022-09-03T13:52:21;25.70;40.10
2687;DHT22;1353;51.386;7.028;2022-09-03T13:54:52;26.20;39.20
2687;DHT22;1353;51.386;7.028;2022-09-03T13:57:29;25.40;39.90
2687;DHT22;1353;51.386;7.028;2022-09-03T14:00:00;25.80;40.80
2687;DHT22;1353;51.386;7.028;2022-09-03T14:02:37;25.60;41.80
2687;DHT22;1353;51.386;7.028;2022-09-03T14:05:13;25.20;43.50
2687;DHT22;1353;51.386;7.028;2022-09-03T14:07:53;25.40;44.80
2687;DHT22;1353;51.386;7.028;2022-09-03T14:10:29;24.90;45.20
2687;DHT22;1353;51.386;7.028;2022-09-03T14:13:05;25.00;46.60
2687;DHT22;1353;51.386;7.028;2022-09-03T14:15:42;24.40;46.70
2687;DHT22;1353;51.386;7.028;2022-09-03T14:18:22;24.70;46.20
2687;DHT22;1353;51.386;7.028;2022-09-03T14:20:56;25.70;46.00
2687;DHT22;1353;51.386;7.028;2022-09-03T14:23:30;25.40;45.50
2687;DHT22;1353;51.386;7.028;2022-09-03T14:26:01;24.70;47.30
2687;DHT22;1353;51.386;7.028;2022-09-03T14:28:33;24.90;47.60
2687;DHT22;1353;51.386;7.028;2022-09-03T14:31:07;25.10;46.70
2687;DHT22;1353;51.386;7.028;2022-09-03T14:33:45;25.20;47.10
2687;DHT22;1353;51.386;7.028;2022-09-03T14:36:21;24.50;48.80
2687;DHT22;1353;51.386;7.028;2022-09-03T14:42:01;24.20;50.80
2687;DHT22;1353;51.386;7.028;2022-09-03T14:44:47;24.60;51.90
2687;DHT22;1353;51.386;7.028;2022-09-03T14:47:25;24.30;51.30
2687;DHT22;1353;51.386;7.028;2022-09-03T14:50:08;24.50;51.40
2687;DHT22;1353;51.386;7.028;2022-09-03T14:55:53;24.90;49.60
2687;DHT22;1353;51.386;7.028;2022-09-03T14:58:35;24.90;48.80
2687;DHT22;1353;51.386;7.028;2022-09-03T15:01:10;25.10;48.50
2687;DHT22;1353;51.386;7.028;2022-09-03T15:03:58;25.00;48.30
2687;DHT22;1353;51.386;7.028;2022-09-03T15:06:45;24.50;50.40
2687;DHT22;1353;51.386;7.028;2022-09-03T15:09:20;24.40;51.20
2687;DHT22;1353;51.386;7.028;2022-09-03T15:11:51;24.40;51.10
2687;DHT22;1353;51.386;7.028;2022-09-03T15:14:23;24.50;52.10
2687;DHT22;1353;51.386;7.028;2022-09-03T15:16:58;24.30;50.80
2687;DHT22;1353;51.386;7.028;2022-09-03T15:19:46;24.30;50.90
2687;DHT22;1353;51.386;7.028;2022-09-03T15:22:31;24.60;50.90
2687;DHT22;1353;51.386;7.028;2022-09-03T15:25:22;24.40;51.80
2687;DHT22;1353;51.386;7.028;2022-09-03T15:28:04;24.50;51.00
2687;DHT22;1353;51.386;7.028;2022-09-03T15:30:35;24.30;50.80
2687;DHT22;1353;51.386;7.028;2022-09-03T15:33:12;24.60;51.70
2687;DHT22;1353;51.386;7.028;2022-09-03T15:36:04;24.40;50.70
2687;DHT22;1353;51.386;7.028;2022-09-03T15:38:40;24.10;50.90
2687;DHT22;1353;51.386;7.028;2022-09-03T15:41:16;24.10;50.90
2687;DHT22;1353;51.386;7.028;2022-09-03T15:43:47;24.30;51.40
2687;DHT22;1353;51.386;7.028;2022-09-03T15:46:33;24.30;51.00
2687;DHT22;1353;51.386;7.028;2022-09-03T15:49:05;24.00;52.50
2687;DHT22;1353;51.386;7.028;2022-09-03T15:51:44;24.10;52.70
2687;DHT22;1353;51.386;7.028;2022-09-03T15:54:19;24.10;52.10
2687;DHT22;1353;51.386;7.028;2022-09-03T15:56:54;24.20;52.00
2687;DHT22;1353;51.386;7.028;2022-09-03T15:59:34;24.30;52.30
2687;DHT22;1353;51.386;7.028;2022-09-03T16:02:05;24.20;52.30
2687;DHT22;1353;51.386;7.028;2022-09-03T16:04:47;24.20;51.50
2687;DHT22;1353;51.386;7.028;2022-09-03T16:07:22;24.10;52.50
2687;DHT22;1353;51.386;7.028;2022-09-03T16:09:55;24.00;54.50
2687;DHT22;1353;51.386;7.028;2022-09-03T16:12:35;23.90;55.70
2687;DHT22;1353;51.386;7.028;2022-09-03T16:15:05;23.80;59.10
2687;DHT22;1353;51.386;7.028;2022-09-03T16:17:34;23.70;61.70
2687;DHT22;1353;51.386;7.028;2022-09-03T16:20:07;23.50;65.00
2687;DHT22;1353;51.386;7.028;2022-09-03T16:22:43;23.40;68.00
2687;DHT22;1353;51.386;7.028;2022-09-03T16:25:16;23.40;70.50
2687;DHT22;1353;51.386;7.028;2022-09-03T16:27:52;23.30;74.40
2687;DHT22;1353;51.386;7.028;2022-09-03T16:30:31;23.10;77.70
2687;DHT22;1353;51.386;7.028;2022-09-03T16:33:07;23.10;81.70
2687;DHT22;1353;51.386;7.028;2022-09-03T16:35:43;23.10;83.70
2687;DHT22;1353;51.386;7.028;2022-09-03T16:38:30;23.00;86.80
2687;DHT22;1353;51.386;7.028;2022-09-03T16:41:10;22.90;89.00
2687;DHT22;1353;51.386;7.028;2022-09-03T16:43:44;22.80;91.60
2687;DHT22;1353;51.386;7.028;2022-09-03T16:46:23;22.60;93.10
2687;DHT22;1353;51.386;7.028;2022-09-03T16:49:00;22.60;94.10
2687;DHT22;1353;51.386;7.028;2022-09-03T16:51:36;22.60;95.40